createdAt,value
2018-06-21T00:01:26.182Z,46.73
2018-06-21T00:03:31.513Z,47.58
2018-06-21T00:05:36.834Z,47.66
2018-06-21T00:07:42.183Z,47.00
2018-06-21T00:09:47.547Z,46.98
2018-06-21T00:11:52.873Z,47.20
2018-06-21T00:13:58.466Z,47.34
2018-06-21T00:16:03.501Z,47.49
2018-06-21T00:18:08.725Z,48.10
2018-06-21T00:20:14.026Z,48.28
2018-06-21T00:22:19.303Z,48.35
2018-06-21T00:24:24.325Z,47.84
2018-06-21T00:26:29.567Z,48.53
2018-06-21T00:28:34.934Z,47.77
2018-06-21T00:30:40.369Z,48.66
2018-06-21T00:32:45.730Z,48.81
2018-06-21T00:34:51.160Z,48.19
2018-06-21T00:36:56.468Z,48.99
2018-06-21T00:39:01.759Z,48.21
2018-06-21T00:41:07.083Z,48.86
2018-06-21T00:43:12.372Z,48.17
2018-06-21T00:45:17.711Z,48.91
2018-06-21T00:47:23.007Z,49.07
2018-06-21T00:49:28.591Z,49.11
2018-06-21T00:51:33.956Z,48.83
2018-06-21T00:53:39.272Z,49.22
2018-06-21T00:56:01.556Z,48.30
2018-06-21T00:58:06.926Z,49.00
2018-06-21T01:00:12.274Z,48.84
2018-06-21T01:02:17.375Z,48.99
2018-06-21T01:04:22.671Z,48.47
2018-06-21T01:06:27.626Z,49.01
2018-06-21T01:08:32.965Z,48.89
2018-06-21T01:10:38.341Z,48.95
2018-06-21T01:12:43.661Z,48.08
2018-06-21T01:14:49.167Z,49.17
2018-06-21T01:16:54.635Z,49.04
2018-06-21T01:18:59.976Z,48.40
2018-06-21T01:21:06.056Z,49.31
2018-06-21T01:23:11.496Z,49.52
2018-06-21T01:25:16.835Z,49.68
2018-06-21T01:27:21.871Z,49.02
2018-06-21T01:29:27.210Z,49.56
2018-06-21T01:31:32.608Z,49.83
2018-06-21T01:33:37.956Z,48.78
2018-06-21T01:35:43.317Z,49.85
2018-06-21T01:37:48.641Z,49.86
2018-06-21T01:39:53.661Z,49.09
2018-06-21T01:41:59.136Z,49.93
2018-06-21T01:44:04.476Z,49.93
2018-06-21T01:46:09.874Z,49.75
2018-06-21T01:48:15.208Z,49.62
2018-06-21T01:50:20.637Z,49.90
2018-06-21T01:52:26.070Z,50.32
2018-06-21T01:54:31.469Z,49.91
2018-06-21T01:56:36.951Z,49.77
2018-06-21T01:58:42.255Z,50.63
2018-06-21T02:00:47.615Z,50.06
2018-06-21T02:02:54.362Z,50.06
2018-06-21T02:04:59.699Z,50.10
2018-06-21T02:07:05.048Z,49.96
2018-06-21T02:09:10.957Z,50.46
2018-06-21T02:11:17.731Z,50.10
2018-06-21T02:13:23.448Z,50.39
2018-06-21T02:15:28.792Z,50.80
2018-06-21T02:17:34.247Z,51.46
2018-06-21T02:19:39.732Z,50.47
2018-06-21T02:21:45.341Z,50.60
2018-06-21T02:23:50.726Z,50.54
2018-06-21T02:25:56.231Z,51.11
2018-06-21T02:28:01.755Z,51.49
2018-06-21T02:30:07.089Z,51.54
2018-06-21T02:32:12.216Z,50.86
2018-06-21T02:34:17.283Z,50.88
2018-06-21T02:36:22.653Z,51.58
2018-06-21T02:38:28.109Z,50.88
2018-06-21T02:40:33.427Z,51.53
2018-06-21T02:42:38.754Z,50.87
2018-06-21T02:44:44.163Z,51.52
2018-06-21T02:46:49.973Z,51.30
2018-06-21T02:48:55.403Z,51.72
2018-06-21T02:51:00.880Z,50.65
2018-06-21T02:53:05.878Z,50.82
2018-06-21T02:55:11.162Z,50.76
2018-06-21T02:57:16.130Z,51.09
2018-06-21T02:59:21.471Z,51.34
2018-06-21T03:01:26.907Z,51.33
2018-06-21T03:03:32.345Z,51.22
2018-06-21T03:05:38.344Z,50.61
2018-06-21T03:07:44.585Z,51.48
2018-06-21T03:09:49.508Z,50.73
2018-06-21T03:11:54.785Z,50.59
2018-06-21T03:14:00.403Z,50.73
2018-06-21T03:16:05.781Z,51.55
2018-06-21T03:18:11.108Z,50.75
2018-06-21T03:20:16.594Z,51.45
2018-06-21T03:22:21.902Z,51.49
2018-06-21T03:24:27.228Z,50.85
2018-06-21T03:26:32.643Z,50.86
2018-06-21T03:28:37.941Z,50.97
2018-06-21T03:30:43.290Z,51.85
2018-06-21T03:32:48.633Z,51.89
2018-06-21T03:34:54.263Z,51.16
2018-06-21T03:36:59.784Z,51.94
2018-06-21T03:39:06.241Z,51.32
2018-06-21T03:41:11.593Z,51.96
2018-06-21T03:43:16.936Z,52.04
2018-06-21T03:45:22.328Z,51.44
2018-06-21T03:47:28.186Z,51.34
2018-06-21T03:49:33.516Z,51.42
2018-06-21T03:51:39.881Z,52.80
2018-06-21T03:53:45.557Z,52.43
2018-06-21T03:55:50.916Z,51.66
2018-06-21T03:57:56.627Z,52.59
2018-06-21T04:00:02.076Z,52.38
2018-06-21T04:02:07.598Z,51.82
2018-06-21T04:04:13.079Z,52.69
2018-06-21T04:06:18.350Z,52.29
2018-06-21T04:08:23.791Z,52.06
2018-06-21T04:10:29.184Z,52.70
2018-06-21T04:12:34.525Z,51.95
2018-06-21T04:14:39.942Z,52.43
2018-06-21T04:16:45.417Z,52.74
2018-06-21T04:18:50.870Z,51.91
2018-06-21T04:20:55.912Z,51.98
2018-06-21T04:23:01.269Z,52.18
2018-06-21T04:25:06.991Z,52.76
2018-06-21T04:27:12.319Z,53.02
2018-06-21T04:29:17.890Z,53.03
2018-06-21T04:31:23.209Z,52.17
2018-06-21T04:33:28.238Z,52.29
2018-06-21T04:35:33.492Z,52.33
2018-06-21T04:37:38.981Z,53.24
2018-06-21T04:39:44.403Z,52.53
2018-06-21T04:41:49.968Z,53.14
2018-06-21T04:43:55.374Z,52.88
2018-06-21T04:46:00.708Z,52.49
2018-06-21T04:48:06.342Z,53.21
2018-06-21T04:50:11.772Z,52.51
2018-06-21T04:52:16.820Z,53.60
2018-06-21T04:54:22.073Z,52.73
2018-06-21T04:56:27.588Z,52.63
2018-06-21T04:58:32.953Z,52.76
2018-06-21T05:00:38.404Z,53.67
2018-06-21T05:02:43.836Z,53.61
2018-06-21T05:04:49.169Z,53.47
2018-06-21T05:06:54.480Z,53.06
2018-06-21T05:08:59.818Z,53.52
2018-06-21T05:11:05.363Z,53.57
2018-06-21T05:13:10.740Z,53.69
2018-06-21T05:15:16.213Z,53.43
2018-06-21T05:17:21.706Z,52.75
2018-06-21T05:19:27.043Z,53.08
2018-06-21T05:21:32.671Z,53.54
2018-06-21T05:23:38.168Z,52.68
2018-06-21T05:25:43.527Z,53.43
2018-06-21T05:27:48.873Z,52.60
2018-06-21T05:29:54.181Z,53.33
2018-06-21T05:31:59.574Z,52.48
2018-06-21T05:34:04.917Z,53.41
2018-06-21T05:36:10.317Z,52.57
2018-06-21T05:38:15.699Z,52.48
2018-06-21T05:40:32.411Z,52.67
2018-06-21T05:42:37.860Z,52.61
2018-06-21T05:44:43.486Z,52.02
2018-06-21T05:46:48.846Z,52.92
2018-06-21T05:48:54.355Z,52.69
2018-06-21T05:50:59.713Z,52.06
2018-06-21T05:53:05.091Z,51.66
2018-06-21T05:55:10.492Z,51.56
2018-06-21T05:57:15.951Z,51.64
2018-06-21T05:59:20.988Z,52.24
2018-06-21T06:01:26.407Z,51.95
2018-06-21T06:03:31.492Z,51.37
2018-06-21T06:05:36.705Z,52.00
2018-06-21T06:07:42.067Z,51.98
2018-06-21T06:09:47.391Z,51.50
2018-06-21T06:11:52.886Z,51.13
2018-06-21T06:13:59.232Z,51.47
2018-06-21T06:16:04.685Z,52.66
2018-06-21T06:18:10.081Z,53.05
2018-06-21T06:20:15.522Z,52.54
2018-06-21T06:22:21.185Z,52.53
2018-06-21T06:24:26.925Z,51.25
2018-06-21T06:26:32.319Z,51.20
2018-06-21T06:28:37.691Z,50.84
2018-06-21T06:30:42.976Z,49.45
2018-06-21T06:32:48.470Z,48.77
2018-06-21T06:34:53.816Z,48.29
2018-06-21T06:36:59.297Z,48.85
2018-06-21T06:39:18.950Z,47.70
2018-06-21T06:41:24.386Z,47.44
2018-06-21T06:43:29.744Z,45.56
2018-06-21T06:45:35.271Z,45.47
2018-06-21T06:47:40.832Z,44.94
2018-06-21T06:49:46.144Z,43.28
2018-06-21T06:51:51.486Z,43.18
2018-06-21T06:53:57.225Z,43.14
2018-06-21T06:56:02.651Z,42.17
2018-06-21T06:58:08.734Z,41.63
2018-06-21T07:00:14.459Z,41.32
2018-06-21T07:02:19.737Z,40.96
2018-06-21T07:04:25.139Z,41.47
2018-06-21T07:06:30.491Z,41.36
2018-06-21T07:08:35.917Z,40.81
2018-06-21T07:10:41.694Z,40.97
2018-06-21T07:12:47.152Z,40.66
2018-06-21T07:14:52.833Z,39.78
2018-06-21T07:16:59.451Z,39.96
2018-06-21T07:19:05.086Z,39.64
2018-06-21T07:21:10.543Z,39.78
2018-06-21T07:23:16.027Z,39.17
2018-06-21T07:25:21.397Z,39.18
2018-06-21T07:27:27.011Z,38.48
2018-06-21T07:29:32.321Z,39.20
2018-06-21T07:31:37.664Z,38.11
2018-06-21T07:33:43.041Z,37.88
2018-06-21T07:35:48.507Z,38.26
2018-06-21T07:37:54.129Z,38.16
2018-06-21T07:39:59.669Z,37.45
2018-06-21T07:42:04.989Z,37.01
2018-06-21T07:44:10.465Z,37.02
2018-06-21T07:46:15.924Z,36.18
2018-06-21T07:48:21.421Z,34.95
2018-06-21T07:50:26.981Z,35.35
2018-06-21T07:52:32.452Z,35.47
2018-06-21T07:54:37.889Z,35.38
2018-06-21T07:56:43.603Z,34.66
2018-06-21T07:58:48.918Z,35.55
2018-06-21T08:00:54.332Z,35.44
2018-06-21T08:02:59.767Z,35.51
2018-06-21T08:05:05.335Z,34.58
2018-06-21T08:07:11.033Z,35.03
2018-06-21T08:09:16.546Z,34.99
2018-06-21T08:11:21.920Z,35.41
2018-06-21T08:13:28.242Z,35.14
2018-06-21T08:15:33.708Z,34.55
2018-06-21T08:17:39.183Z,35.03
2018-06-21T08:19:44.667Z,35.56
2018-06-21T08:21:50.323Z,34.86
2018-06-21T08:23:55.754Z,35.23
2018-06-21T08:26:01.075Z,34.70
2018-06-21T08:28:07.058Z,35.09
2018-06-21T08:30:13.317Z,35.03
2018-06-21T08:32:18.995Z,34.92
2018-06-21T08:34:24.553Z,34.31
2018-06-21T08:36:30.232Z,35.33
2018-06-21T08:38:36.528Z,34.96
2018-06-21T08:40:41.844Z,35.10
2018-06-21T08:42:47.265Z,34.75
2018-06-21T08:44:52.794Z,34.22
2018-06-21T08:46:59.614Z,35.07
2018-06-21T08:49:04.813Z,34.24
2018-06-21T08:51:10.114Z,33.95
2018-06-21T08:53:15.961Z,34.05
2018-06-21T08:55:21.447Z,35.15
2018-06-21T08:57:26.913Z,34.33
2018-06-21T08:59:32.300Z,34.04
2018-06-21T09:01:37.872Z,33.98
2018-06-21T09:03:43.474Z,34.75
2018-06-21T09:05:49.070Z,33.73
2018-06-21T09:07:54.750Z,33.56
2018-06-21T09:10:00.221Z,33.77
2018-06-21T09:12:05.743Z,33.98
2018-06-21T09:14:11.259Z,33.78
2018-06-21T09:16:16.736Z,33.49
2018-06-21T09:18:22.227Z,33.40
2018-06-21T09:20:27.722Z,34.37
2018-06-21T09:22:33.673Z,33.20
2018-06-21T09:24:39.303Z,34.29
2018-06-21T09:26:44.720Z,33.89
2018-06-21T09:28:50.081Z,33.96
2018-06-21T09:30:55.444Z,34.23
2018-06-21T09:33:00.879Z,34.24
2018-06-21T09:35:06.377Z,34.72
2018-06-21T09:37:11.576Z,34.40
2018-06-21T09:39:21.805Z,34.25
2018-06-21T09:41:32.197Z,34.34
2018-06-21T09:43:50.293Z,34.67
2018-06-21T09:45:53.459Z,34.02
2018-06-21T09:48:04.656Z,34.89
2018-06-21T09:50:10.540Z,34.23
2018-06-21T09:52:16.759Z,33.83
2018-06-21T09:54:22.180Z,34.17
2018-06-21T09:56:27.575Z,33.56
2018-06-21T09:58:33.090Z,33.91
2018-06-21T10:00:43.776Z,34.11
2018-06-21T10:02:48.957Z,33.48
2018-06-21T10:04:54.395Z,33.45
2018-06-21T10:07:00.449Z,34.68
2018-06-21T10:09:07.271Z,34.41
2018-06-21T10:11:12.722Z,34.46
2018-06-21T10:13:18.131Z,33.83
2018-06-21T10:15:23.319Z,34.51
2018-06-21T10:17:28.640Z,33.60
2018-06-21T10:19:34.184Z,33.65
2018-06-21T10:21:39.751Z,33.75
2018-06-21T10:23:45.179Z,33.58
2018-06-21T10:25:50.700Z,32.94
2018-06-21T10:27:56.451Z,33.23
2018-06-21T10:30:02.013Z,33.19
2018-06-21T10:32:07.560Z,34.06
2018-06-21T10:34:12.964Z,33.57
2018-06-21T10:36:18.092Z,33.75
2018-06-21T10:38:23.354Z,33.46
2018-06-21T10:40:28.812Z,33.68
2018-06-21T10:42:34.317Z,32.97
2018-06-21T10:44:39.703Z,32.85
2018-06-21T10:46:45.088Z,33.39
2018-06-21T10:48:50.644Z,34.08
2018-06-21T10:50:56.128Z,33.59
2018-06-21T10:53:01.471Z,33.95
2018-06-21T10:55:06.957Z,32.50
2018-06-21T10:57:12.322Z,33.67
2018-06-21T10:59:17.762Z,32.45
2018-06-21T11:01:23.152Z,33.15
2018-06-21T11:03:28.547Z,32.56
2018-06-21T11:05:33.937Z,33.67
2018-06-21T11:07:39.225Z,32.60
2018-06-21T11:09:44.552Z,33.25
2018-06-21T11:11:50.021Z,33.25
2018-06-21T11:13:55.295Z,33.08
2018-06-21T11:16:00.782Z,32.67
2018-06-21T11:18:06.459Z,32.62
2018-06-21T11:20:12.595Z,33.13
2018-06-21T11:22:17.973Z,33.30
2018-06-21T11:24:23.444Z,32.74
2018-06-21T11:26:28.793Z,33.04
2018-06-21T11:28:34.353Z,32.72
2018-06-21T11:30:40.121Z,32.35
2018-06-21T11:32:45.810Z,32.21
2018-06-21T11:34:51.348Z,33.17
2018-06-21T11:36:56.996Z,33.76
2018-06-21T11:39:02.520Z,32.54
2018-06-21T11:41:08.141Z,32.95
2018-06-21T11:43:13.753Z,32.75
2018-06-21T11:45:19.312Z,32.77
2018-06-21T11:47:24.815Z,33.45
2018-06-21T11:49:30.176Z,33.47
2018-06-21T11:51:35.852Z,33.65
2018-06-21T11:53:41.448Z,32.78
2018-06-21T11:55:47.332Z,33.42
2018-06-21T11:57:53.057Z,32.85
2018-06-21T11:59:59.383Z,33.19
2018-06-21T12:02:04.788Z,33.05
2018-06-21T12:04:09.864Z,33.34
2018-06-21T12:06:15.373Z,32.57
2018-06-21T12:08:20.941Z,34.03
2018-06-21T12:10:26.635Z,33.05
2018-06-21T12:12:32.064Z,33.04
2018-06-21T12:14:37.520Z,33.28
2018-06-21T12:16:42.964Z,32.56
2018-06-21T12:18:48.186Z,33.11
2018-06-21T12:20:53.929Z,33.13
2018-06-21T12:23:00.020Z,33.07
2018-06-21T12:25:05.940Z,32.92
2018-06-21T12:27:11.420Z,33.12
2018-06-21T12:29:17.305Z,33.05
2018-06-21T12:31:22.828Z,33.85
2018-06-21T12:33:28.288Z,33.45
2018-06-21T12:35:33.886Z,33.53
2018-06-21T12:37:39.377Z,33.08
2018-06-21T12:39:44.751Z,32.73
2018-06-21T12:41:50.197Z,33.45
2018-06-21T12:43:55.708Z,32.37
2018-06-21T12:46:01.072Z,33.07
2018-06-21T12:48:06.742Z,32.61
2018-06-21T12:50:12.112Z,32.43
2018-06-21T12:52:17.500Z,32.45
2018-06-21T12:54:23.408Z,33.04
2018-06-21T12:56:28.845Z,32.92
2018-06-21T12:58:34.233Z,33.42
2018-06-21T13:00:39.651Z,33.17
2018-06-21T13:02:45.123Z,32.83
2018-06-21T13:04:50.515Z,33.43
2018-06-21T13:06:55.801Z,33.25
2018-06-21T13:09:18.248Z,33.55
2018-06-21T13:12:46.106Z,34.73
2018-06-21T13:14:51.450Z,34.12
2018-06-21T13:16:57.043Z,35.04
2018-06-21T13:19:02.424Z,33.96
2018-06-21T13:21:08.189Z,35.17
2018-06-21T13:23:13.639Z,34.33
2018-06-21T13:25:19.045Z,35.17
2018-06-21T13:27:24.616Z,34.95
2018-06-21T13:29:29.995Z,35.33
2018-06-21T13:31:35.406Z,35.42
2018-06-21T13:33:40.825Z,34.67
2018-06-21T13:35:46.210Z,35.32
2018-06-21T13:37:51.640Z,35.71
2018-06-21T13:39:57.273Z,34.88
2018-06-21T13:42:02.693Z,34.78
2018-06-21T13:44:08.199Z,35.29
2018-06-21T13:46:14.440Z,34.92
2018-06-21T13:48:20.001Z,35.90
2018-06-21T13:50:25.392Z,35.68
2018-06-21T13:52:30.864Z,36.06
2018-06-21T13:54:36.296Z,35.39
2018-06-21T13:56:41.630Z,36.05
2018-06-21T13:58:46.969Z,35.34
2018-06-21T14:00:52.369Z,35.69
2018-06-21T14:02:57.758Z,35.87
2018-06-21T14:05:03.367Z,36.21
2018-06-21T14:07:08.750Z,36.57
2018-06-21T14:09:14.214Z,35.43
2018-06-21T14:11:19.610Z,35.61
2018-06-21T14:13:25.005Z,36.67
2018-06-21T14:15:30.404Z,35.72
2018-06-21T14:17:35.872Z,36.84
2018-06-21T14:19:41.200Z,36.76
2018-06-21T14:21:46.514Z,35.63
2018-06-21T14:23:51.897Z,36.44
2018-06-21T14:25:57.317Z,36.57
2018-06-21T14:28:02.708Z,36.13
2018-06-21T14:30:08.160Z,35.94
2018-06-21T14:32:13.549Z,35.78
2018-06-21T14:34:19.005Z,35.82
2018-06-21T14:36:24.369Z,36.33
2018-06-21T14:38:29.785Z,36.56
2018-06-21T14:40:35.127Z,36.85
2018-06-21T14:42:40.520Z,36.55
2018-06-21T14:44:46.117Z,36.68
2018-06-21T14:46:51.471Z,36.08
2018-06-21T14:48:57.350Z,36.07
2018-06-21T14:51:02.750Z,35.96
2018-06-21T14:53:08.213Z,35.36
2018-06-21T14:55:13.631Z,35.09
2018-06-21T14:57:19.007Z,34.56
2018-06-21T14:59:24.449Z,35.05
2018-06-21T15:01:29.838Z,35.37
2018-06-21T15:03:35.276Z,34.72
2018-06-21T15:05:40.725Z,33.72
2018-06-21T15:07:46.194Z,33.76
2018-06-21T15:09:51.622Z,34.22
2018-06-21T15:11:57.036Z,33.93
2018-06-21T15:14:02.420Z,33.22
2018-06-21T15:16:07.989Z,32.82
2018-06-21T15:18:13.577Z,33.42
2018-06-21T15:20:18.734Z,33.08
2018-06-21T15:22:24.078Z,33.58
2018-06-21T15:24:29.551Z,32.75
2018-06-21T15:26:34.858Z,32.93
2018-06-21T15:28:40.325Z,32.40
2018-06-21T15:30:46.000Z,32.09
2018-06-21T15:32:51.424Z,32.31
2018-06-21T15:34:56.842Z,33.33
2018-06-21T15:37:02.194Z,33.07
2018-06-21T15:39:22.021Z,32.52
2018-06-21T15:41:29.238Z,32.09
2018-06-21T15:43:34.768Z,32.26
2018-06-21T15:45:40.217Z,32.70
2018-06-21T15:47:45.637Z,33.23
2018-06-21T15:49:51.119Z,32.05
2018-06-21T15:51:56.706Z,31.82
2018-06-21T15:54:01.803Z,32.64
2018-06-21T15:56:07.195Z,32.83
2018-06-21T15:58:12.547Z,33.04
2018-06-21T16:00:18.017Z,32.30
2018-06-21T16:02:23.535Z,32.42
2018-06-21T16:04:29.109Z,32.77
2018-06-21T16:06:34.662Z,32.64
2018-06-21T16:08:40.076Z,32.32
2018-06-21T16:10:45.600Z,31.50
2018-06-21T16:12:51.032Z,32.08
2018-06-21T16:14:56.516Z,31.38
2018-06-21T16:17:02.007Z,31.03
2018-06-21T16:19:07.461Z,31.66
2018-06-21T16:21:12.915Z,31.18
2018-06-21T16:23:18.347Z,31.48
2018-06-21T16:25:23.816Z,30.51
2018-06-21T16:27:29.411Z,30.42
2018-06-21T16:29:34.792Z,31.10
2018-06-21T16:31:40.200Z,30.09
2018-06-21T16:33:45.632Z,30.24
2018-06-21T16:35:51.077Z,30.20
2018-06-21T16:37:56.781Z,31.03
2018-06-21T16:40:02.308Z,30.32
2018-06-21T16:42:07.934Z,30.75
2018-06-21T16:44:13.383Z,30.25
2018-06-21T16:46:18.841Z,29.83
2018-06-21T16:48:24.212Z,29.65
2018-06-21T16:50:29.677Z,30.21
2018-06-21T16:52:35.121Z,30.30
2018-06-21T16:54:40.812Z,30.76
2018-06-21T16:56:46.170Z,29.17
2018-06-21T16:58:51.679Z,30.10
2018-06-21T17:00:57.198Z,29.49
2018-06-21T17:03:02.725Z,29.58
2018-06-21T17:07:11.607Z,29.52
2018-06-21T17:09:16.941Z,29.18
2018-06-21T17:11:22.259Z,29.75
2018-06-21T17:13:27.624Z,29.87
2018-06-21T17:15:33.320Z,29.60
2018-06-21T17:17:38.709Z,27.94
2018-06-21T17:19:44.173Z,28.44
2018-06-21T17:21:49.494Z,29.33
2018-06-21T17:23:54.915Z,28.54
2018-06-21T17:26:00.688Z,29.34
2018-06-21T17:28:06.393Z,28.63
2018-06-21T17:30:11.889Z,29.27
2018-06-21T17:32:17.448Z,28.99
2018-06-21T17:34:22.891Z,28.66
2018-06-21T17:36:28.679Z,28.73
2018-06-21T17:38:34.054Z,28.53
2018-06-21T17:40:39.434Z,29.34
2018-06-21T17:42:44.494Z,29.52
2018-06-21T17:44:49.807Z,28.97
2018-06-21T17:46:55.176Z,28.48
2018-06-21T17:49:00.648Z,29.11
2018-06-21T17:51:06.013Z,28.49
2018-06-21T17:53:11.424Z,28.21
2018-06-21T17:55:16.805Z,29.16
2018-06-21T17:57:22.188Z,28.24
2018-06-21T17:59:27.576Z,28.46
2018-06-21T18:01:33.079Z,28.39
2018-06-21T18:03:38.445Z,28.17
2018-06-21T18:05:43.531Z,28.81
2018-06-21T18:07:48.885Z,28.79
2018-06-21T18:09:54.283Z,28.66
2018-06-21T18:12:00.902Z,27.72
2018-06-21T18:14:06.332Z,28.22
2018-06-21T18:16:11.896Z,28.43
2018-06-21T18:18:17.327Z,28.16
2018-06-21T18:20:22.750Z,27.93
2018-06-21T18:22:28.143Z,28.17
2018-06-21T18:24:33.396Z,27.38
2018-06-21T18:26:38.702Z,28.28
2018-06-21T18:28:44.095Z,27.56
2018-06-21T18:30:49.563Z,28.34
2018-06-21T18:32:55.180Z,27.48
2018-06-21T18:35:01.127Z,27.86
2018-06-21T18:37:06.544Z,28.20
2018-06-21T18:39:12.964Z,28.39
2018-06-21T18:41:18.343Z,27.79
2018-06-21T18:43:23.737Z,27.58
2018-06-21T18:45:29.142Z,28.14
2018-06-21T18:47:34.710Z,27.77
2018-06-21T18:49:40.112Z,28.61
2018-06-21T18:51:45.524Z,28.77
2018-06-21T18:53:51.063Z,28.12
2018-06-21T18:55:56.473Z,28.62
2018-06-21T18:58:01.890Z,28.58
2018-06-21T19:00:09.450Z,27.70
2018-06-21T19:02:14.985Z,27.71
2018-06-21T19:04:20.649Z,28.25
2018-06-21T19:06:31.061Z,28.49
2018-06-21T19:08:41.561Z,28.11
2018-06-21T19:10:52.058Z,27.60
2018-06-21T19:12:57.500Z,28.45
2018-06-21T19:15:03.955Z,28.16
2018-06-21T19:17:09.578Z,27.75
2018-06-21T19:19:15.068Z,27.84
2018-06-21T19:21:20.430Z,27.92
2018-06-21T19:23:25.807Z,27.99
2018-06-21T19:25:31.276Z,28.97
2018-06-21T19:27:36.870Z,28.08
2018-06-21T19:29:42.203Z,28.02
2018-06-21T19:31:47.659Z,27.97
2018-06-21T19:33:53.014Z,28.63
2018-06-21T19:35:58.398Z,28.42
2018-06-21T19:38:03.405Z,28.86
2018-06-21T19:40:08.979Z,28.97
2018-06-21T19:42:14.357Z,28.78
2018-06-21T19:44:19.741Z,28.82
2018-06-21T19:46:25.337Z,28.91
2018-06-21T19:48:30.680Z,28.65
2018-06-21T19:50:36.155Z,28.54
2018-06-21T19:52:41.487Z,28.98
2018-06-21T19:54:46.933Z,28.95
2018-06-21T19:56:52.390Z,29.24
2018-06-21T20:01:02.450Z,29.13
2018-06-21T20:03:07.917Z,28.92
2018-06-21T20:05:13.354Z,29.27
2018-06-21T20:07:18.826Z,28.57
2018-06-21T20:09:24.181Z,29.17
2018-06-21T20:11:34.625Z,28.83
2018-06-21T20:13:48.448Z,29.47
2018-06-21T20:15:54.903Z,29.35
2018-06-21T20:18:00.900Z,29.58
2018-06-21T20:20:11.504Z,29.62
2018-06-21T20:22:16.860Z,29.64
2018-06-21T20:24:22.343Z,29.91
2018-06-21T20:26:27.865Z,29.23
2018-06-21T20:28:33.539Z,29.80
2018-06-21T20:30:38.886Z,30.04
2018-06-21T20:32:44.386Z,29.71
2018-06-21T20:34:49.767Z,29.01
2018-06-21T20:36:55.513Z,29.97
2018-06-21T20:39:01.349Z,29.99
2018-06-21T20:41:06.924Z,29.31
2018-06-21T20:43:12.358Z,29.98
2018-06-21T20:45:17.883Z,29.15
2018-06-21T20:47:23.334Z,29.91
2018-06-21T20:49:28.900Z,29.11
2018-06-21T20:51:34.533Z,30.04
2018-06-21T20:53:40.675Z,30.08
2018-06-21T20:55:46.090Z,29.89
2018-06-21T20:57:51.515Z,29.77
2018-06-21T20:59:56.903Z,30.16
2018-06-21T21:02:02.226Z,29.39
2018-06-21T21:04:07.599Z,30.08
2018-06-21T21:06:13.033Z,30.27
2018-06-21T21:08:18.454Z,29.69
2018-06-21T21:10:24.019Z,29.57
2018-06-21T21:12:29.756Z,30.15
2018-06-21T21:14:35.207Z,29.79
2018-06-21T21:16:40.796Z,30.53
2018-06-21T21:18:46.066Z,30.05
2018-06-21T21:20:51.391Z,29.88
2018-06-21T21:22:56.839Z,30.67
2018-06-21T21:25:02.343Z,30.72
2018-06-21T21:27:07.741Z,30.38
2018-06-21T21:29:13.326Z,30.41
2018-06-21T21:31:18.819Z,30.70
2018-06-21T21:33:24.709Z,30.14
2018-06-21T21:35:30.159Z,30.91
2018-06-21T21:37:35.691Z,30.38
2018-06-21T21:39:40.992Z,31.02
2018-06-21T21:41:46.339Z,30.40
2018-06-21T21:43:51.491Z,30.94
2018-06-21T21:45:57.214Z,30.56
2018-06-21T21:48:02.614Z,31.07
2018-06-21T21:50:08.208Z,31.26
2018-06-21T21:52:13.534Z,31.41
2018-06-21T21:54:18.575Z,30.97
2018-06-21T21:56:23.997Z,31.51
2018-06-21T21:58:29.415Z,30.86
2018-06-21T22:00:50.570Z,30.97
2018-06-21T22:02:55.580Z,31.58
2018-06-21T22:05:00.885Z,31.79
2018-06-21T22:07:06.221Z,31.05
2018-06-21T22:09:11.544Z,31.51
2018-06-21T22:11:16.920Z,32.11
2018-06-21T22:13:22.247Z,31.46
2018-06-21T22:15:27.659Z,31.99
2018-06-21T22:17:33.039Z,32.38
2018-06-21T22:19:38.678Z,32.49
2018-06-21T22:21:43.926Z,32.19
2018-06-21T22:23:49.269Z,32.15
2018-06-21T22:25:54.295Z,31.59
2018-06-21T22:28:00.068Z,31.47
2018-06-21T22:30:05.464Z,31.60
2018-06-21T22:32:10.987Z,32.62
2018-06-21T22:34:16.312Z,32.13
2018-06-21T22:36:21.728Z,32.73
2018-06-21T22:38:26.937Z,32.15
2018-06-21T22:40:32.252Z,32.76
2018-06-21T22:42:37.749Z,32.07
2018-06-21T22:44:43.108Z,32.82
2018-06-21T22:46:48.416Z,32.70
2018-06-21T22:48:53.904Z,32.96
2018-06-21T22:50:59.211Z,32.12
2018-06-21T22:53:04.572Z,32.93
2018-06-21T22:55:09.961Z,32.25
2018-06-21T22:57:15.239Z,32.44
2018-06-21T22:59:20.516Z,32.89
2018-06-21T23:01:26.507Z,32.61
2018-06-21T23:03:32.287Z,32.70
2018-06-21T23:05:37.728Z,33.13
2018-06-21T23:07:43.183Z,33.32
2018-06-21T23:09:48.739Z,32.86
2018-06-21T23:11:54.152Z,33.32
2018-06-21T23:13:59.431Z,33.62
2018-06-21T23:16:04.787Z,33.05
2018-06-21T23:18:11.619Z,33.52
2018-06-21T23:20:17.011Z,32.99
2018-06-21T23:22:22.295Z,33.38
2018-06-21T23:24:27.854Z,33.81
2018-06-21T23:26:33.376Z,33.48
2018-06-21T23:28:38.670Z,33.29
2018-06-21T23:30:43.951Z,34.13
2018-06-21T23:32:49.210Z,33.24
2018-06-21T23:34:54.502Z,33.63
2018-06-21T23:37:01.017Z,34.07
2018-06-21T23:39:09.995Z,33.80
2018-06-21T23:41:15.340Z,33.51
2018-06-21T23:43:20.631Z,33.61
2018-06-21T23:45:25.908Z,34.06
2018-06-21T23:47:31.223Z,33.43
2018-06-21T23:49:36.892Z,33.34
2018-06-21T23:51:42.183Z,34.26
2018-06-21T23:53:47.517Z,33.34
2018-06-21T23:55:52.873Z,33.64
2018-06-21T23:57:58.184Z,33.87
